Startpagina
METAR-TAF:

METAR-TAF

Vliegvelden :

Beja, Portugal

breedte: 38-04-40N, lengte: 007-55-57W, hoogte: 193 m

Actueel weer

Dit bericht is 32 minuten geleden gemaakt, om 10:00 UTC
Wind 4 kt uit het oostzuidoosten, variërend tussen het oosten en het zuidoosten
Temperatuur 13°C
Vochtigheid 72%
Druk 1031 hPa
Zicht 10 km of meer
geen wolken onder 1500 m en geen cumulonimbus

METAR: LPBJ 221000Z 11004KT 080V140 CAVOK 13/08 Q1031

Tijdstip: 10:32 (10:32 UTC)

Verwachting

Dit bericht is 5 uur en het 28 minuten geleden gemaakt, om 05:04 UTC
Verwachting geldig van 22 om 06 UTC tot 23 om 06 UTC
Wind 8 kt uit het noordoosten
Zicht 10 km of meer
geen wolken onder 1500 m en geen cumulonimbus

TAF: LPBJ 220504Z 2206/2306 04008KT CAVOK

Waarnemingen en weersverwachtingen van meer dan 4000 vliegvelden (METAR en TAF).

De beschikbare stations zijn de gele en rode punten op de kaart.

Ga met uw muis naar het station om de naam te zien.

Klik dan om waarnemingen en weersverwachtingen te zien.

kaart wijzigen: klik op de groene knoppen met een zwart kruis om in te zoomen, op de groene knop met een streepje om uit te zoomen of op de groene pijlen voor aangrenzende kaarten.


METAR-TAF: